createdAt,value
2022-12-18T00:01:32.869Z,-15.40
2022-12-18T00:04:01.923Z,-15.50
2022-12-18T00:06:30.883Z,-15.50
2022-12-18T00:09:00.448Z,-15.60
2022-12-18T00:11:30.104Z,-15.60
2022-12-18T00:13:59.309Z,-15.60
2022-12-18T00:16:28.055Z,-15.60
2022-12-18T00:18:58.180Z,-15.70
2022-12-18T00:21:25.705Z,-15.80
2022-12-18T00:23:53.509Z,-15.90
2022-12-18T00:26:32.753Z,-15.80
2022-12-18T00:29:05.732Z,-15.70
2022-12-18T00:31:33.569Z,-15.50
2022-12-18T00:34:00.964Z,-15.40
2022-12-18T00:36:31.293Z,-15.40
2022-12-18T00:39:00.437Z,-15.30
2022-12-18T00:41:47.424Z,-15.20
2022-12-18T00:44:17.799Z,-15.30
2022-12-18T00:46:46.424Z,-15.20
2022-12-18T00:49:13.788Z,-15.10
2022-12-18T00:51:41.688Z,-15.20
2022-12-18T00:54:09.023Z,-15.20
2022-12-18T00:56:48.235Z,-15.20
2022-12-18T00:59:25.303Z,-15.20
2022-12-18T01:01:56.690Z,-15.10
2022-12-18T01:04:31.060Z,-15.10
2022-12-18T01:06:58.364Z,-15.10
2022-12-18T01:09:25.779Z,-15.10
2022-12-18T01:11:53.173Z,-15.00
2022-12-18T01:14:20.474Z,-14.80
2022-12-18T01:16:47.780Z,-14.60
2022-12-18T01:19:15.174Z,-14.60
2022-12-18T01:21:42.478Z,-14.50
2022-12-18T01:24:13.650Z,-14.50
2022-12-18T01:26:41.022Z,-14.40
2022-12-18T01:29:08.296Z,-14.30
2022-12-18T01:31:36.125Z,-14.20
2022-12-18T01:34:04.918Z,-14.10
2022-12-18T01:36:34.721Z,-14.10
2022-12-18T01:39:04.239Z,-14.10
2022-12-18T01:41:53.064Z,-14.20
2022-12-18T01:44:55.298Z,-14.20
2022-12-18T01:47:45.748Z,-14.10
2022-12-18T01:50:18.943Z,-14.00
2022-12-18T01:52:57.898Z,-13.90
2022-12-18T01:55:27.925Z,-13.90
2022-12-18T01:57:58.736Z,-13.80
2022-12-18T02:00:27.714Z,-13.70
2022-12-18T02:02:55.730Z,-13.70
2022-12-18T02:05:49.588Z,-13.60
2022-12-18T02:08:54.713Z,-13.50
2022-12-18T02:11:48.015Z,-13.40
2022-12-18T02:14:40.641Z,-13.40
2022-12-18T02:17:26.874Z,-13.30
2022-12-18T02:20:15.449Z,-13.20
2022-12-18T02:23:03.885Z,-13.10
2022-12-18T02:26:05.745Z,-13.00
2022-12-18T02:28:37.266Z,-12.90
2022-12-18T02:31:09.546Z,-12.90
2022-12-18T02:33:39.298Z,-12.80
2022-12-18T02:36:08.994Z,-12.80
2022-12-18T02:38:37.589Z,-12.80
2022-12-18T02:41:05.677Z,-12.70
2022-12-18T02:43:33.193Z,-12.70
2022-12-18T02:46:02.997Z,-12.80
2022-12-18T02:48:33.901Z,-12.70
2022-12-18T02:51:22.630Z,-12.80
2022-12-18T02:54:00.530Z,-12.80
2022-12-18T02:56:46.580Z,-12.80
2022-12-18T02:59:23.703Z,-12.90
2022-12-18T03:02:00.323Z,-12.90
2022-12-18T03:04:42.271Z,-12.90
2022-12-18T03:07:16.796Z,-12.90
2022-12-18T03:09:47.861Z,-12.90
2022-12-18T03:12:24.035Z,-12.90
2022-12-18T03:15:02.295Z,-12.80
2022-12-18T03:17:33.259Z,-12.80
2022-12-18T03:20:06.573Z,-12.80
2022-12-18T03:22:36.423Z,-12.80
2022-12-18T03:25:08.623Z,-12.80
2022-12-18T03:27:40.397Z,-12.80
2022-12-18T03:30:12.065Z,-12.90
2022-12-18T03:33:14.491Z,-12.90
2022-12-18T03:35:44.210Z,-13.00
2022-12-18T03:38:12.369Z,-13.10
2022-12-18T03:40:58.030Z,-13.10
2022-12-18T03:43:55.850Z,-13.20
2022-12-18T03:46:29.408Z,-13.20
2022-12-18T03:49:16.786Z,-13.20
2022-12-18T03:52:06.406Z,-13.20
2022-12-18T03:54:36.000Z,-13.20
2022-12-18T03:57:11.325Z,-13.20
2022-12-18T03:59:40.301Z,-13.20
2022-12-18T04:02:09.466Z,-13.20
2022-12-18T04:04:41.345Z,-13.20
2022-12-18T04:07:09.126Z,-13.20
2022-12-18T04:09:40.203Z,-13.30
2022-12-18T04:12:10.377Z,-13.30
2022-12-18T04:14:37.797Z,-13.30
2022-12-18T04:17:05.210Z,-13.40
2022-12-18T04:19:32.610Z,-13.40
2022-12-18T04:22:00.044Z,-13.40
2022-12-18T04:24:27.586Z,-13.40
2022-12-18T04:26:55.569Z,-13.40
2022-12-18T04:29:22.849Z,-13.40
2022-12-18T04:31:50.121Z,-13.40
2022-12-18T04:34:17.528Z,-13.40
2022-12-18T04:36:44.909Z,-13.40
2022-12-18T04:39:12.423Z,-13.30
2022-12-18T04:41:39.788Z,-13.40
2022-12-18T04:44:07.169Z,-13.30
2022-12-18T04:46:34.628Z,-13.30
2022-12-18T04:49:02.053Z,-13.30
2022-12-18T04:51:29.433Z,-13.30
2022-12-18T04:53:56.792Z,-13.30
2022-12-18T04:56:24.534Z,-13.40
2022-12-18T04:58:51.952Z,-13.30
2022-12-18T05:01:20.267Z,-13.30
2022-12-18T05:03:47.854Z,-13.30
2022-12-18T05:06:15.436Z,-13.30
2022-12-18T05:08:42.758Z,-13.30
2022-12-18T05:11:13.698Z,-13.30
2022-12-18T05:13:41.500Z,-13.30
2022-12-18T05:16:09.861Z,-13.30
2022-12-18T05:18:37.349Z,-13.30
2022-12-18T05:21:05.691Z,-13.30
2022-12-18T05:23:36.194Z,-13.30
2022-12-18T05:26:06.100Z,-13.30
2022-12-18T05:28:34.806Z,-13.30
2022-12-18T05:31:05.521Z,-13.30
2022-12-18T05:33:35.412Z,-13.40
2022-12-18T05:36:04.559Z,-13.40
2022-12-18T05:38:33.606Z,-13.30
2022-12-18T05:41:01.143Z,-13.40
2022-12-18T05:43:29.348Z,-13.40
2022-12-18T05:45:58.087Z,-13.40
2022-12-18T05:48:26.104Z,-13.50
2022-12-18T05:50:53.519Z,-13.50
2022-12-18T05:53:22.010Z,-13.50
2022-12-18T05:55:49.830Z,-13.50
2022-12-18T05:58:17.574Z,-13.60
2022-12-18T06:00:47.182Z,-13.50
2022-12-18T06:03:15.195Z,-13.60
2022-12-18T06:05:45.415Z,-13.60
2022-12-18T06:08:14.372Z,-13.60
2022-12-18T06:10:42.609Z,-13.50
2022-12-18T06:13:10.185Z,-13.50
2022-12-18T06:15:40.605Z,-13.60
2022-12-18T06:18:07.994Z,-13.60
2022-12-18T06:20:37.752Z,-13.50
2022-12-18T06:23:05.139Z,-13.60
2022-12-18T06:25:32.548Z,-13.60
2022-12-18T06:28:00.084Z,-13.50
2022-12-18T06:30:27.408Z,-13.50
2022-12-18T06:32:56.916Z,-13.50
2022-12-18T06:35:24.663Z,-13.50
2022-12-18T06:37:52.135Z,-13.50
2022-12-18T06:40:19.892Z,-13.50
2022-12-18T06:42:47.451Z,-13.50
2022-12-18T06:45:14.830Z,-13.50
2022-12-18T06:47:42.118Z,-13.50
2022-12-18T06:50:09.447Z,-13.50
2022-12-18T06:52:37.961Z,-13.50
2022-12-18T06:55:05.761Z,-13.40
2022-12-18T06:57:32.993Z,-13.40
2022-12-18T07:00:00.302Z,-13.40
2022-12-18T07:02:28.003Z,-13.40
2022-12-18T07:04:55.413Z,-13.40
2022-12-18T07:07:22.793Z,-13.30
2022-12-18T07:09:52.132Z,-13.30
2022-12-18T07:12:20.172Z,-13.30
2022-12-18T07:14:47.445Z,-13.30
2022-12-18T07:17:14.842Z,-13.20
2022-12-18T07:19:42.199Z,-13.20
2022-12-18T07:22:09.478Z,-13.20
2022-12-18T07:24:36.958Z,-13.20
2022-12-18T07:27:04.399Z,-13.10
2022-12-18T07:29:32.155Z,-13.00
2022-12-18T07:31:59.566Z,-13.00
2022-12-18T07:34:26.983Z,-13.00
2022-12-18T07:36:54.251Z,-12.90
2022-12-18T07:39:21.552Z,-12.90
2022-12-18T07:42:08.795Z,-12.90
2022-12-18T07:44:36.328Z,-12.80
2022-12-18T07:47:06.607Z,-12.80
2022-12-18T07:49:37.809Z,-12.80
2022-12-18T07:52:05.211Z,-12.80
2022-12-18T07:54:32.454Z,-12.70
2022-12-18T07:56:59.804Z,-12.70
2022-12-18T07:59:27.518Z,-12.70
2022-12-18T08:01:54.961Z,-12.60
2022-12-18T08:04:22.453Z,-12.60
2022-12-18T08:06:49.768Z,-12.50
2022-12-18T08:09:17.126Z,-12.50
2022-12-18T08:11:45.634Z,-12.40
2022-12-18T08:14:13.088Z,-12.40
2022-12-18T08:16:40.827Z,-12.30
2022-12-18T08:19:08.196Z,-12.20
2022-12-18T08:21:35.545Z,-12.10
2022-12-18T08:24:03.279Z,-12.10
2022-12-18T08:26:32.332Z,-12.00
2022-12-18T08:29:00.732Z,-12.00
2022-12-18T08:31:29.532Z,-11.90
2022-12-18T08:33:57.422Z,-11.80
2022-12-18T08:36:25.688Z,-11.70
2022-12-18T08:38:54.453Z,-11.60
2022-12-18T08:41:22.228Z,-11.50
2022-12-18T08:44:08.649Z,-11.40
2022-12-18T08:46:38.651Z,-11.30
2022-12-18T08:49:06.965Z,-11.20
2022-12-18T08:51:35.282Z,-11.10
2022-12-18T08:54:03.133Z,-11.00
2022-12-18T08:56:32.489Z,-10.80
2022-12-18T08:58:59.870Z,-10.60
2022-12-18T09:01:27.409Z,-10.60
2022-12-18T09:03:54.924Z,-10.40
2022-12-18T09:06:23.776Z,-10.20
2022-12-18T09:08:51.168Z,-10.10
2022-12-18T09:11:24.313Z,-10.00
2022-12-18T09:13:52.689Z,-9.90
2022-12-18T09:16:20.987Z,-9.90
2022-12-18T09:18:49.075Z,-9.60
2022-12-18T09:21:18.789Z,-9.40
2022-12-18T09:23:50.161Z,-9.40
2022-12-18T09:26:17.493Z,-9.30
2022-12-18T09:28:45.440Z,-9.30
2022-12-18T09:31:14.039Z,-9.00
2022-12-18T09:33:41.421Z,-8.90
2022-12-18T09:36:12.719Z,-8.80
2022-12-18T09:38:40.244Z,-8.60
2022-12-18T09:41:38.172Z,-8.50
2022-12-18T09:44:28.865Z,-8.40
2022-12-18T09:46:59.543Z,-8.30
2022-12-18T09:49:30.099Z,-8.30
2022-12-18T09:52:19.152Z,-8.20
2022-12-18T09:55:02.204Z,-7.90
2022-12-18T09:57:33.803Z,-7.90
2022-12-18T10:00:18.838Z,-7.80
2022-12-18T10:02:47.236Z,-7.60
2022-12-18T10:05:28.772Z,-7.30
2022-12-18T10:08:19.053Z,-7.30
2022-12-18T10:10:53.652Z,-7.10
2022-12-18T10:13:55.447Z,-7.10
2022-12-18T10:16:28.783Z,-6.80
2022-12-18T10:19:04.990Z,-6.70
2022-12-18T10:21:35.578Z,-6.60
2022-12-18T10:24:28.398Z,-6.50
2022-12-18T10:27:03.044Z,-6.20
2022-12-18T10:29:30.544Z,-5.90
2022-12-18T10:31:57.912Z,-5.80
2022-12-18T10:34:25.489Z,-5.60
2022-12-18T10:36:53.027Z,-5.60
2022-12-18T10:39:27.452Z,-5.60
2022-12-18T10:42:20.840Z,-5.50
2022-12-18T10:45:09.672Z,-5.20
2022-12-18T10:47:37.132Z,-5.40
2022-12-18T10:50:05.788Z,-5.40
2022-12-18T10:52:33.112Z,-5.30
2022-12-18T10:55:04.515Z,-5.60
2022-12-18T10:57:39.857Z,-5.60
2022-12-18T11:00:40.281Z,-5.80
2022-12-18T11:03:32.650Z,-5.70
2022-12-18T11:06:14.494Z,-5.60
2022-12-18T11:08:44.092Z,-5.80
2022-12-18T11:11:25.062Z,-5.90
2022-12-18T11:14:01.747Z,-5.80
2022-12-18T11:16:32.088Z,-5.80
2022-12-18T11:19:37.556Z,-5.60
2022-12-18T11:22:29.079Z,-5.30
2022-12-18T11:27:58.658Z,-5.80
2022-12-18T11:30:34.863Z,-5.90
2022-12-18T11:33:23.386Z,-5.90
2022-12-18T11:36:10.890Z,-5.90
2022-12-18T11:38:44.128Z,-5.80
2022-12-18T11:42:03.772Z,-5.90
2022-12-18T11:44:59.640Z,-5.90
2022-12-18T11:47:38.114Z,-6.00
2022-12-18T11:50:13.341Z,-5.90
2022-12-18T11:52:41.882Z,-5.70
2022-12-18T11:55:34.753Z,-5.50
2022-12-18T11:58:38.560Z,-5.10
2022-12-18T12:01:20.075Z,-5.00
2022-12-18T12:04:21.706Z,-4.90
2022-12-18T12:07:17.056Z,-4.60
2022-12-18T12:10:01.458Z,-4.50
2022-12-18T12:12:49.052Z,-4.70
2022-12-18T12:15:46.117Z,-5.10
2022-12-18T12:18:45.581Z,-5.80
2022-12-18T12:21:26.487Z,-6.20
2022-12-18T12:24:09.473Z,-6.40
2022-12-18T12:26:49.212Z,-6.60
2022-12-18T12:29:37.782Z,-6.50
2022-12-18T12:32:14.082Z,-6.40
2022-12-18T12:35:11.928Z,-6.20
2022-12-18T12:37:57.907Z,-6.20
2022-12-18T12:46:34.042Z,-6.10
2022-12-18T12:49:05.204Z,-6.00
2022-12-18T12:51:42.028Z,-6.00
2022-12-18T12:54:22.921Z,-6.00
2022-12-18T12:57:05.728Z,-6.20
2022-12-18T13:00:02.289Z,-6.50
2022-12-18T13:02:59.338Z,-6.80
2022-12-18T13:05:51.545Z,-6.90
2022-12-18T13:08:30.921Z,-7.00
2022-12-18T13:11:19.882Z,-7.00
2022-12-18T13:13:57.994Z,-7.00
2022-12-18T13:16:28.472Z,-7.00
2022-12-18T13:19:00.884Z,-7.00
2022-12-18T13:21:33.851Z,-7.00
2022-12-18T13:24:23.866Z,-7.00
2022-12-18T13:26:52.301Z,-7.00
2022-12-18T13:29:43.339Z,-7.00
2022-12-18T13:32:26.163Z,-7.00
2022-12-18T13:35:29.804Z,-7.00
2022-12-18T13:37:57.172Z,-7.00
2022-12-18T13:40:43.277Z,-6.90
2022-12-18T13:43:44.672Z,-6.80
2022-12-18T13:46:44.202Z,-6.70
2022-12-18T13:49:14.322Z,-6.60
2022-12-18T13:51:44.748Z,-6.50
2022-12-18T13:54:40.637Z,-6.60
2022-12-18T13:57:32.656Z,-6.60
2022-12-18T14:00:19.945Z,-6.50
2022-12-18T14:02:47.940Z,-6.40
2022-12-18T14:05:35.084Z,-6.40
2022-12-18T14:08:09.418Z,-6.40
2022-12-18T14:10:48.657Z,-6.50
2022-12-18T14:13:42.389Z,-6.50
2022-12-18T14:16:16.793Z,-6.40
2022-12-18T14:18:53.397Z,-6.40
2022-12-18T14:21:24.687Z,-6.40
2022-12-18T14:24:16.703Z,-6.40
2022-12-18T14:26:47.192Z,-6.40
2022-12-18T14:29:21.588Z,-6.30
2022-12-18T14:32:09.373Z,-6.20
2022-12-18T14:34:39.432Z,-6.00
2022-12-18T14:37:10.783Z,-5.90
2022-12-18T14:39:38.120Z,-6.00
2022-12-18T14:42:05.630Z,-5.90
2022-12-18T14:44:44.244Z,-5.90
2022-12-18T14:47:18.835Z,-5.90
2022-12-18T14:49:46.261Z,-5.80
2022-12-18T14:52:29.062Z,-5.60
2022-12-18T14:54:56.411Z,-5.40
2022-12-18T14:57:25.486Z,-5.50
2022-12-18T14:59:53.521Z,-5.40
2022-12-18T15:02:29.389Z,-5.30
2022-12-18T15:05:08.455Z,-5.50
2022-12-18T15:07:51.531Z,-5.30
2022-12-18T15:10:27.576Z,-5.40
2022-12-18T15:12:57.943Z,-5.50
2022-12-18T15:15:37.390Z,-5.50
2022-12-18T15:18:12.302Z,-5.50
2022-12-18T15:20:50.265Z,-5.60
2022-12-18T15:23:39.716Z,-5.50
2022-12-18T15:26:11.707Z,-5.60
2022-12-18T15:28:47.007Z,-5.50
2022-12-18T15:31:14.395Z,-5.50
2022-12-18T15:34:00.721Z,-5.40
2022-12-18T15:36:28.345Z,-5.20
2022-12-18T15:39:04.621Z,-5.10
2022-12-18T15:41:37.618Z,-4.90
2022-12-18T15:44:22.158Z,-4.70
2022-12-18T15:46:49.560Z,-4.70
2022-12-18T15:49:16.973Z,-4.60
2022-12-18T15:51:44.361Z,-4.50
2022-12-18T15:54:17.368Z,-4.50
2022-12-18T15:57:03.255Z,-4.50
2022-12-18T15:59:30.769Z,-4.50
2022-12-18T16:01:58.138Z,-4.60
2022-12-18T16:04:26.497Z,-4.50
2022-12-18T16:09:41.385Z,-4.60
2022-12-18T16:12:17.001Z,-4.50
2022-12-18T16:14:44.831Z,-4.50
2022-12-18T16:17:14.417Z,-4.40
2022-12-18T16:19:41.944Z,-4.40
2022-12-18T16:22:27.868Z,-4.40
2022-12-18T16:24:56.367Z,-4.30
2022-12-18T16:27:24.721Z,-4.20
2022-12-18T16:29:52.182Z,-4.20
2022-12-18T16:32:22.133Z,-4.10
2022-12-18T16:34:50.687Z,-4.10
2022-12-18T16:37:18.114Z,-4.10
2022-12-18T16:39:45.904Z,-4.10
2022-12-18T16:42:18.098Z,-4.00
2022-12-18T16:44:46.482Z,-4.00
2022-12-18T16:47:15.384Z,-3.90
2022-12-18T16:49:43.544Z,-3.70
2022-12-18T16:52:10.991Z,-3.60
2022-12-18T16:54:38.438Z,-3.60
2022-12-18T16:57:06.150Z,-3.60
2022-12-18T16:59:34.644Z,-3.60
2022-12-18T17:02:02.379Z,-3.60
2022-12-18T17:04:29.933Z,-3.50
2022-12-18T17:06:57.455Z,-3.50
2022-12-18T17:09:27.983Z,-3.50
2022-12-18T17:11:55.338Z,-3.50
2022-12-18T17:14:24.608Z,-3.50
2022-12-18T17:17:19.359Z,-3.40
2022-12-18T17:19:40.606Z,-3.30
2022-12-18T17:22:08.485Z,-3.30
2022-12-18T17:24:36.067Z,-3.30
2022-12-18T17:27:04.774Z,-3.30
2022-12-18T17:29:32.365Z,-3.20
2022-12-18T17:32:00.321Z,-3.20
2022-12-18T17:34:28.689Z,-3.20
2022-12-18T17:36:57.351Z,-3.10
2022-12-18T17:39:24.722Z,-3.10
2022-12-18T17:41:52.236Z,-3.10
2022-12-18T17:44:19.705Z,-3.00
2022-12-18T17:46:47.695Z,-3.00
2022-12-18T17:49:15.389Z,-2.90
2022-12-18T17:51:43.315Z,-2.90
2022-12-18T17:54:11.515Z,-2.90
2022-12-18T17:56:39.576Z,-2.90
2022-12-18T17:59:07.368Z,-2.90
2022-12-18T18:01:40.931Z,-2.80
2022-12-18T18:04:10.452Z,-2.80
2022-12-18T18:06:39.090Z,-2.70
2022-12-18T18:09:16.501Z,-2.60
2022-12-18T18:12:03.833Z,-2.60
2022-12-18T18:14:31.603Z,-2.60
2022-12-18T18:17:00.771Z,-2.60
2022-12-18T18:19:33.345Z,-2.50
2022-12-18T18:22:02.081Z,-2.50
2022-12-18T18:24:29.672Z,-2.40
2022-12-18T18:26:59.803Z,-2.40
2022-12-18T18:29:30.675Z,-2.30
2022-12-18T18:31:58.913Z,-2.20
2022-12-18T18:34:29.030Z,-2.10
2022-12-18T18:36:59.434Z,-2.10
2022-12-18T18:39:27.814Z,-2.10
2022-12-18T18:41:55.311Z,-2.00
2022-12-18T18:44:25.702Z,-1.90
2022-12-18T18:46:56.050Z,-1.90
2022-12-18T18:49:28.121Z,-1.90
2022-12-18T18:51:57.216Z,-1.80
2022-12-18T18:54:25.851Z,-1.80
2022-12-18T18:57:19.342Z,-1.80
2022-12-18T18:59:40.830Z,-1.70
2022-12-18T19:02:14.533Z,-1.60
2022-12-18T19:04:46.345Z,-1.60
2022-12-18T19:07:18.476Z,-1.50
2022-12-18T19:10:01.511Z,-1.50
2022-12-18T19:12:51.706Z,-1.50
2022-12-18T19:15:19.188Z,-1.50
2022-12-18T19:17:47.025Z,-1.50
2022-12-18T19:20:15.570Z,-1.40
2022-12-18T19:22:43.203Z,-1.30
2022-12-18T19:25:12.187Z,-1.30
2022-12-18T19:27:40.408Z,-1.40
2022-12-18T19:30:08.582Z,-1.40
2022-12-18T19:32:36.109Z,-1.30
2022-12-18T19:35:03.632Z,-1.30
2022-12-18T19:37:31.615Z,-1.30
2022-12-18T19:39:59.224Z,-1.30
2022-12-18T19:42:35.097Z,-1.30
2022-12-18T19:45:03.607Z,-1.20
2022-12-18T19:47:31.091Z,-1.20
2022-12-18T19:49:58.508Z,-1.20
2022-12-18T19:52:26.047Z,-1.20
2022-12-18T19:54:53.848Z,-1.20
2022-12-18T19:57:21.209Z,-1.10
2022-12-18T19:59:48.845Z,-1.10
2022-12-18T20:02:16.621Z,-1.10
2022-12-18T20:04:47.127Z,-1.10
2022-12-18T20:07:15.035Z,-1.10
2022-12-18T20:09:42.456Z,-1.00
2022-12-18T20:12:10.888Z,-1.00
2022-12-18T20:14:38.452Z,-1.00
2022-12-18T20:17:06.005Z,-1.00
2022-12-18T20:19:34.174Z,-1.00
2022-12-18T20:22:02.322Z,-1.00
2022-12-18T20:24:29.750Z,-0.90
2022-12-18T20:26:57.264Z,-0.90
2022-12-18T20:29:24.771Z,-0.90
2022-12-18T20:31:52.786Z,-0.90
2022-12-18T20:34:20.404Z,-0.80
2022-12-18T20:36:48.428Z,-0.80
2022-12-18T20:39:18.054Z,-0.90
2022-12-18T20:41:46.603Z,-0.80
2022-12-18T20:44:22.820Z,-0.90
2022-12-18T20:46:56.861Z,-0.90
2022-12-18T20:49:25.895Z,-0.90
2022-12-18T20:51:56.522Z,-0.90
2022-12-18T20:54:26.475Z,-0.90
2022-12-18T20:56:54.155Z,-0.90
2022-12-18T20:59:23.445Z,-0.90
2022-12-18T21:01:52.376Z,-0.90
2022-12-18T21:04:20.754Z,-0.90
2022-12-18T21:06:54.085Z,-0.90
2022-12-18T21:09:28.163Z,-0.90
2022-12-18T21:12:22.864Z,-0.90
2022-12-18T21:14:50.414Z,-0.90
2022-12-18T21:17:17.765Z,-0.90
2022-12-18T21:19:45.069Z,-0.90
2022-12-18T21:22:13.564Z,-0.90
2022-12-18T21:24:40.995Z,-0.90
2022-12-18T21:27:08.408Z,-0.90
2022-12-18T21:29:38.327Z,-0.90
2022-12-18T21:32:06.317Z,-0.90
2022-12-18T21:34:34.482Z,-0.90
2022-12-18T21:37:02.743Z,-0.80
2022-12-18T21:39:31.563Z,-0.80
2022-12-18T21:42:17.983Z,-0.80
2022-12-18T21:44:47.927Z,-0.80
2022-12-18T21:47:20.852Z,-0.80
2022-12-18T21:49:52.101Z,-0.80
2022-12-18T21:52:20.225Z,-0.80
2022-12-18T21:54:51.128Z,-0.70
2022-12-18T21:57:19.088Z,-0.70
2022-12-18T21:59:46.463Z,-0.70
2022-12-18T22:02:19.783Z,-0.80
2022-12-18T22:04:48.329Z,-0.70
2022-12-18T22:07:17.189Z,-0.80
2022-12-18T22:09:44.719Z,-0.70
2022-12-18T22:12:34.164Z,-0.70
2022-12-18T22:15:02.332Z,-0.70
2022-12-18T22:17:29.838Z,-0.70
2022-12-18T22:19:58.171Z,-0.70
2022-12-18T22:22:25.737Z,-0.70
2022-12-18T22:24:53.216Z,-0.60
2022-12-18T22:27:20.617Z,-0.70
2022-12-18T22:30:06.058Z,-0.60
2022-12-18T22:32:35.254Z,-0.60
2022-12-18T22:35:09.225Z,-0.50
2022-12-18T22:37:40.165Z,-0.50
2022-12-18T22:40:09.974Z,-0.50
2022-12-18T22:42:40.841Z,-0.40
2022-12-18T22:45:08.685Z,-0.40
2022-12-18T22:47:36.065Z,-0.40
2022-12-18T22:50:03.522Z,-0.40
2022-12-18T22:52:30.821Z,-0.30
2022-12-18T22:54:58.113Z,-0.30
2022-12-18T22:57:25.945Z,-0.30
2022-12-18T22:59:53.305Z,-0.30
2022-12-18T23:02:20.855Z,-0.30
2022-12-18T23:04:48.327Z,-0.20
2022-12-18T23:07:16.265Z,-0.20
2022-12-18T23:09:44.373Z,-0.20
2022-12-18T23:12:16.485Z,-0.20
2022-12-18T23:14:44.080Z,-0.20
2022-12-18T23:17:11.425Z,-0.20
2022-12-18T23:19:41.662Z,-0.20
2022-12-18T23:22:11.952Z,-0.20
2022-12-18T23:24:39.973Z,-0.20
2022-12-18T23:27:11.512Z,-0.20
2022-12-18T23:29:40.307Z,-0.20
2022-12-18T23:32:08.136Z,-0.20
2022-12-18T23:34:35.732Z,-0.10
2022-12-18T23:37:04.080Z,-0.10
2022-12-18T23:39:31.856Z,-0.20
2022-12-18T23:41:59.704Z,-0.20
2022-12-18T23:44:27.792Z,-0.10
2022-12-18T23:46:55.579Z,-0.10
2022-12-18T23:49:23.414Z,-0.10
2022-12-18T23:51:51.375Z,-0.10
2022-12-18T23:54:22.705Z,0.00
2022-12-18T23:57:01.133Z,-0.10
2022-12-18T23:59:28.932Z,0.00
